Time;durP1;ratioP1;P1;durP2;ratioP2;P2;SDS_P1;SDS_P2;PMS_P1;PMS_P2;Temp;Humidity;BMP_temperature;BMP_pressure;BME280_temperature;BME280_humidity;BME280_pressure;Samples;Min_cycle;Max_cycle;Signal;HPM_P1;HPM_P2
2023/09/27 00:00:36;;;;;;;10.53;7.30;;;;;;;;;;5046335;28;20960;-58
2023/09/27 00:03:03;;;;;;;11.27;8.17;;;;;;;;;;5047651;28;20488;-58
2023/09/27 00:05:28;;;;;;;10.18;7.50;;;;;;;;;;5047485;28;20397;-57
2023/09/27 00:07:54;;;;;;;12.50;8.00;;;;;;;;;;5045578;28;20428;-58
2023/09/27 00:10:19;;;;;;;11.37;7.30;;;;;;;;;;5048051;28;20401;-57
2023/09/27 00:12:46;;;;;;;11.80;7.47;;;;;;;;;;5047742;28;20393;-58
2023/09/27 00:15:11;;;;;;;10.13;7.40;;;;;;;;;;5045223;28;20451;-58
2023/09/27 00:17:37;;;;;;;11.50;7.33;;;;;;;;;;5047567;28;20405;-58
2023/09/27 00:20:03;;;;;;;10.50;6.90;;;;;;;;;;5046950;28;20428;-57
2023/09/27 00:22:28;;;;;;;12.50;6.87;;;;;;;;;;5046360;28;20511;-58
2023/09/27 00:24:54;;;;;;;10.37;6.70;;;;;;;;;;5046429;28;20738;-58
2023/09/27 00:27:19;;;;;;;10.13;6.20;;;;;;;;;;5046846;28;20436;-58
2023/09/27 00:29:45;;;;;;;10.33;7.10;;;;;;;;;;5047771;28;20488;-58
2023/09/27 00:32:11;;;;;;;9.95;6.70;;;;;;;;;;5044934;28;20413;-58
2023/09/27 00:34:36;;;;;;;10.70;6.70;;;;;;;;;;5047247;28;20448;-57
2023/09/27 00:37:02;;;;;;;11.10;6.90;;;;;;;;;;5047494;28;20401;-58
2023/09/27 00:39:27;;;;;;;10.55;6.55;;;;;;;;;;5045756;28;20918;-58
2023/09/27 00:41:52;;;;;;;9.37;6.57;;;;;;;;;;5046641;28;20413;-58
2023/09/27 00:44:18;;;;;;;8.50;6.20;;;;;;;;;;5046980;28;20400;-58
2023/09/27 00:46:43;;;;;;;10.93;6.87;;;;;;;;;;5046618;28;20394;-58
2023/09/27 00:49:08;;;;;;;9.53;6.30;;;;;;;;;;5043607;28;20504;-58
2023/09/27 00:51:34;;;;;;;9.40;7.03;;;;;;;;;;5046354;28;20405;-58
2023/09/27 00:53:59;;;;;;;11.23;6.60;;;;;;;;;;5046006;28;20421;-58
2023/09/27 00:56:25;;;;;;;8.83;6.37;;;;;;;;;;5042616;28;20417;-58
2023/09/27 00:58:50;;;;;;;10.27;6.10;;;;;;;;;;5045727;28;20428;-58
2023/09/27 01:01:15;;;;;;;9.37;6.37;;;;;;;;;;5045126;28;20488;-57
2023/09/27 01:03:41;;;;;;;8.90;5.93;;;;;;;;;;5045043;28;20413;-58
2023/09/27 01:06:06;;;;;;;9.40;6.67;;;;;;;;;;5044603;28;20421;-58
2023/09/27 01:08:32;;;;;;;10.50;6.47;;;;;;;;;;5047391;28;20489;-58
2023/09/27 01:10:57;;;;;;;9.10;6.00;;;;;;;;;;5046013;28;20454;-58
2023/09/27 01:13:22;;;;;;;9.20;6.50;;;;;;;;;;5044661;28;20405;-58
2023/09/27 01:15:48;;;;;;;9.90;6.07;;;;;;;;;;5047388;28;20417;-58
2023/09/27 01:18:13;;;;;;;8.33;5.93;;;;;;;;;;5045778;28;20409;-57
2023/09/27 01:20:38;;;;;;;8.63;5.70;;;;;;;;;;5042935;28;20413;-58
2023/09/27 01:23:05;;;;;;;8.27;5.53;;;;;;;;;;5046285;28;20397;-58
2023/09/27 01:25:32;;;;;;;9.15;5.25;;;;;;;;;;5045814;28;20947;-57
2023/09/27 01:27:58;;;;;;;9.10;5.07;;;;;;;;;;5045443;28;20421;-57
2023/09/27 01:30:25;;;;;;;7.78;5.10;;;;;;;;;;5044951;28;20887;-57
2023/09/27 01:32:50;;;;;;;6.82;4.97;;;;;;;;;;5047011;28;20428;-58
2023/09/27 01:35:16;;;;;;;7.10;5.20;;;;;;;;;;5045770;28;20395;-58
2023/09/27 01:37:41;;;;;;;7.87;5.20;;;;;;;;;;5044345;28;20488;-58
2023/09/27 01:40:09;;;;;;;9.02;5.22;;;;;;;;;;5046586;28;20463;-58
2023/09/27 01:42:37;;;;;;;8.15;4.85;;;;;;;;;;5046701;28;20877;-58
2023/09/27 01:45:04;;;;;;;8.95;5.38;;;;;;;;;;5044128;28;20499;-58
2023/09/27 01:47:29;;;;;;;11.20;5.28;;;;;;;;;;5045869;28;20416;-58
2023/09/27 01:49:54;;;;;;;9.77;5.43;;;;;;;;;;5046494;28;20420;-58
2023/09/27 01:52:20;;;;;;;8.07;5.30;;;;;;;;;;5044929;28;20404;-57
2023/09/27 01:54:45;;;;;;;9.57;5.37;;;;;;;;;;5044918;28;20435;-58
2023/09/27 01:57:10;;;;;;;9.37;5.20;;;;;;;;;;5046545;28;20873;-57
2023/09/27 01:59:35;;;;;;;8.50;5.17;;;;;;;;;;5046389;28;20401;-58
2023/09/27 02:02:01;;;;;;;11.20;6.20;;;;;;;;;;5043621;28;20398;-58
2023/09/27 02:04:26;;;;;;;9.27;5.80;;;;;;;;;;5046613;28;20868;-58
2023/09/27 02:06:51;;;;;;;8.90;5.50;;;;;;;;;;5046079;28;20405;-58
2023/09/27 02:09:16;;;;;;;8.07;5.97;;;;;;;;;;5044569;28;20425;-58
2023/09/27 02:11:42;;;;;;;9.80;7.33;;;;;;;;;;5045806;28;20971;-58
2023/09/27 02:14:07;;;;;;;9.47;7.40;;;;;;;;;;5045618;28;20421;-58
2023/09/27 02:16:33;;;;;;;9.90;7.23;;;;;;;;;;5045907;28;20401;-58
2023/09/27 02:18:58;;;;;;;10.82;7.07;;;;;;;;;;5044585;28;20402;-57
2023/09/27 02:21:23;;;;;;;8.23;6.50;;;;;;;;;;5045642;28;20776;-57
2023/09/27 02:23:49;;;;;;;9.67;6.90;;;;;;;;;;5048251;28;20942;-58
2023/09/27 02:26:14;;;;;;;10.97;7.67;;;;;;;;;;5047395;28;20764;-58
2023/09/27 02:28:39;;;;;;;10.20;7.40;;;;;;;;;;5049603;28;20496;-57
2023/09/27 02:31:10;;;;;;;10.13;7.27;;;;;;;;;;5049822;28;20772;-57
2023/09/27 02:33:36;;;;;;;13.00;8.33;;;;;;;;;;5047818;28;20409;-58
2023/09/27 02:36:01;;;;;;;11.60;8.32;;;;;;;;;;5048174;28;20397;-58
2023/09/27 02:38:26;;;;;;;11.77;8.10;;;;;;;;;;5050060;28;20402;-58
2023/09/27 02:40:52;;;;;;;11.67;8.60;;;;;;;;;;5049520;28;20768;-58
2023/09/27 02:43:17;;;;;;;11.43;8.87;;;;;;;;;;5047294;28;20409;-57
2023/09/27 02:45:42;;;;;;;10.60;8.20;;;;;;;;;;5049807;28;20846;-58
2023/09/27 02:48:09;;;;;;;10.57;8.20;;;;;;;;;;5048638;28;20452;-58
2023/09/27 02:50:34;;;;;;;12.23;8.80;;;;;;;;;;5047950;28;21176;-58
2023/09/27 02:52:59;;;;;;;11.93;9.50;;;;;;;;;;5048855;28;20454;-57
2023/09/27 02:55:25;;;;;;;13.03;10.50;;;;;;;;;;5048845;28;20416;-58
2023/09/27 02:57:51;;;;;;;11.45;9.52;;;;;;;;;;5048314;28;20402;-58
2023/09/27 03:00:17;;;;;;;12.17;10.00;;;;;;;;;;5047602;28;20466;-58
2023/09/27 03:02:42;;;;;;;13.13;10.00;;;;;;;;;;5048829;28;20489;-57
2023/09/27 03:05:09;;;;;;;11.90;9.30;;;;;;;;;;5049022;28;20594;-58
2023/09/27 03:07:34;;;;;;;12.75;10.25;;;;;;;;;;5046924;28;20413;-58
2023/09/27 03:10:00;;;;;;;12.57;9.73;;;;;;;;;;5049128;28;20417;-58
2023/09/27 03:12:25;;;;;;;11.47;9.73;;;;;;;;;;5048886;28;20406;-58
2023/09/27 03:14:50;;;;;;;12.40;9.63;;;;;;;;;;5047951;28;20963;-58
2023/09/27 03:17:15;;;;;;;13.70;10.27;;;;;;;;;;5047273;28;20757;-57
2023/09/27 03:19:41;;;;;;;13.23;10.55;;;;;;;;;;5049192;28;20409;-58
2023/09/27 03:22:07;;;;;;;12.45;10.60;;;;;;;;;;5047684;28;20495;-59
2023/09/27 03:24:34;;;;;;;14.50;11.80;;;;;;;;;;5046824;28;20451;-58
2023/09/27 03:27:00;;;;;;;12.32;10.68;;;;;;;;;;5047423;28;20405;-58
2023/09/27 03:29:25;;;;;;;14.85;11.88;;;;;;;;;;5048520;28;20398;-58
2023/09/27 03:31:50;;;;;;;12.80;11.37;;;;;;;;;;5046509;28;20954;-58
2023/09/27 03:34:16;;;;;;;16.77;13.17;;;;;;;;;;5047471;28;20402;-58
2023/09/27 03:36:43;;;;;;;13.53;12.00;;;;;;;;;;5048513;28;20892;-58
2023/09/27 03:39:09;;;;;;;14.05;12.52;;;;;;;;;;5047135;28;20405;-58
2023/09/27 03:41:34;;;;;;;13.90;11.63;;;;;;;;;;5047521;28;20408;-57
2023/09/27 03:44:00;;;;;;;14.13;11.13;;;;;;;;;;5050298;28;20884;-58
2023/09/27 03:46:25;;;;;;;14.80;12.00;;;;;;;;;;5050234;28;20404;-58
2023/09/27 03:48:50;;;;;;;13.37;11.20;;;;;;;;;;5047653;28;20405;-58
2023/09/27 03:51:22;;;;;;;15.10;11.00;;;;;;;;;;5046729;28;20780;-57
2023/09/27 03:53:47;;;;;;;13.13;10.60;;;;;;;;;;5048725;28;20402;-58
2023/09/27 03:56:13;;;;;;;12.43;10.60;;;;;;;;;;5047871;28;20408;-58
2023/09/27 03:58:38;;;;;;;13.00;10.50;;;;;;;;;;5030918;28;20459;-58
2023/09/27 04:01:03;;;;;;;13.93;11.00;;;;;;;;;;5025252;28;20865;-58
2023/09/27 04:03:29;;;;;;;14.73;12.60;;;;;;;;;;5026055;28;20411;-58
2023/09/27 04:05:56;;;;;;;13.23;10.70;;;;;;;;;;5025839;28;20492;-57
2023/09/27 04:08:21;;;;;;;13.30;11.25;;;;;;;;;;5024688;28;20444;-58
2023/09/27 04:10:46;;;;;;;14.40;11.77;;;;;;;;;;5025903;28;20440;-58
2023/09/27 04:13:11;;;;;;;13.90;11.20;;;;;;;;;;5021540;28;20414;-58
2023/09/27 04:15:37;;;;;;;14.20;11.17;;;;;;;;;;5019595;28;20419;-58
2023/09/27 04:18:03;;;;;;;18.97;14.70;;;;;;;;;;5018012;28;20765;-58
2023/09/27 04:20:28;;;;;;;15.50;12.47;;;;;;;;;;5021964;28;20407;-58
2023/09/27 04:22:53;;;;;;;15.00;12.13;;;;;;;;;;5028690;28;20412;-58
2023/09/27 04:25:19;;;;;;;14.93;11.80;;;;;;;;;;5024440;28;20445;-58
2023/09/27 04:27:46;;;;;;;12.35;10.95;;;;;;;;;;5025457;28;20426;-57
2023/09/27 04:30:13;;;;;;;14.30;11.95;;;;;;;;;;5027414;28;20494;-58
2023/09/27 04:32:39;;;;;;;14.82;11.68;;;;;;;;;;5031141;28;20419;-58
2023/09/27 04:35:04;;;;;;;14.38;12.10;;;;;;;;;;5022980;28;20405;-58
2023/09/27 04:37:30;;;;;;;13.50;10.93;;;;;;;;;;5018218;28;20820;-58
2023/09/27 04:39:55;;;;;;;14.03;11.40;;;;;;;;;;5019609;28;20428;-58
2023/09/27 04:42:20;;;;;;;14.80;10.97;;;;;;;;;;5019039;28;20431;-58
2023/09/27 04:44:46;;;;;;;12.60;10.60;;;;;;;;;;5024989;28;20425;-57
2023/09/27 04:47:11;;;;;;;13.00;10.07;;;;;;;;;;5026634;28;20401;-57
2023/09/27 04:49:36;;;;;;;13.40;11.63;;;;;;;;;;5025347;28;20968;-58
2023/09/27 04:52:02;;;;;;;12.93;11.27;;;;;;;;;;5024104;28;20409;-58
2023/09/27 04:54:28;;;;;;;13.68;11.40;;;;;;;;;;5024989;28;20977;-58
2023/09/27 04:56:53;;;;;;;12.15;10.80;;;;;;;;;;5026814;28;20409;-57
2023/09/27 04:59:18;;;;;;;12.03;10.10;;;;;;;;;;5017909;28;20460;-57
2023/09/27 05:01:44;;;;;;;12.20;10.27;;;;;;;;;;5018237;28;20477;-58
2023/09/27 05:04:09;;;;;;;13.50;10.43;;;;;;;;;;5019222;28;20429;-58
2023/09/27 05:06:34;;;;;;;11.53;10.23;;;;;;;;;;5026156;28;20414;-58
2023/09/27 05:08:59;;;;;;;12.40;10.17;;;;;;;;;;5024136;28;20937;-58
2023/09/27 05:11:25;;;;;;;11.40;9.57;;;;;;;;;;5027335;28;20403;-58
2023/09/27 05:13:50;;;;;;;13.60;10.63;;;;;;;;;;5024962;28;20407;-57
2023/09/27 05:16:15;;;;;;;13.07;10.10;;;;;;;;;;5023970;28;20407;-59
2023/09/27 05:18:41;;;;;;;12.83;10.70;;;;;;;;;;5026850;28;20413;-57
2023/09/27 05:21:06;;;;;;;12.33;10.40;;;;;;;;;;5021567;28;20977;-59
2023/09/27 05:23:31;;;;;;;16.00;13.25;;;;;;;;;;5016500;28;21437;-59
2023/09/27 05:25:57;;;;;;;14.95;12.57;;;;;;;;;;5016763;28;20893;-56
2023/09/27 05:28:22;;;;;;;14.73;13.03;;;;;;;;;;5024533;28;20505;-56
2023/09/27 05:30:47;;;;;;;18.43;14.80;;;;;;;;;;5024376;28;20810;-56
2023/09/27 05:33:12;;;;;;;14.90;12.47;;;;;;;;;;5024693;28;20423;-57
2023/09/27 05:35:38;;;;;;;14.43;12.57;;;;;;;;;;5026111;28;21513;-57
2023/09/27 05:38:03;;;;;;;14.50;12.57;;;;;;;;;;5023521;28;20409;-57
2023/09/27 05:40:28;;;;;;;15.40;13.30;;;;;;;;;;5031012;28;20402;-56
2023/09/27 05:42:54;;;;;;;16.90;15.10;;;;;;;;;;5045658;28;20409;-57
2023/09/27 05:45:19;;;;;;;16.90;14.48;;;;;;;;;;5043651;28;20413;-58
2023/09/27 05:47:44;;;;;;;15.60;13.60;;;;;;;;;;5046631;28;20605;-58
2023/09/27 05:50:12;;;;;;;17.00;14.50;;;;;;;;;;5046451;28;20423;-57
2023/09/27 05:52:37;;;;;;;17.05;14.88;;;;;;;;;;5043135;28;20749;-57
2023/09/27 05:55:05;;;;;;;16.90;14.43;;;;;;;;;;5045791;28;21199;-57
2023/09/27 05:57:31;;;;;;;17.13;14.73;;;;;;;;;;5046319;28;20411;-57
2023/09/27 05:59:58;;;;;;;16.70;14.97;;;;;;;;;;5049035;28;20406;-57
2023/09/27 06:02:30;;;;;;;17.10;15.30;;;;;;;;;;5048729;28;20490;-57
2023/09/27 06:04:55;;;;;;;19.07;17.07;;;;;;;;;;5050021;28;20432;-57
2023/09/27 06:07:22;;;;;;;18.80;16.65;;;;;;;;;;5049274;28;20851;-57
2023/09/27 06:09:48;;;;;;;17.50;15.60;;;;;;;;;;5047173;28;20585;-56
2023/09/27 06:12:14;;;;;;;19.00;17.00;;;;;;;;;;5048667;28;20566;-58
2023/09/27 06:14:41;;;;;;;17.48;15.50;;;;;;;;;;5050133;28;20464;-58
2023/09/27 06:17:07;;;;;;;17.35;15.57;;;;;;;;;;5048024;28;20481;-57
2023/09/27 06:19:32;;;;;;;17.43;15.63;;;;;;;;;;5049114;28;20867;-57
2023/09/27 06:21:58;;;;;;;18.67;16.77;;;;;;;;;;5049353;28;20409;-57
2023/09/27 06:24:26;;;;;;;18.30;16.50;;;;;;;;;;5048449;28;20721;-57
2023/09/27 06:26:51;;;;;;;18.63;16.60;;;;;;;;;;5047267;28;20405;-57
2023/09/27 06:29:19;;;;;;;17.83;16.02;;;;;;;;;;5049120;28;20474;-58
2023/09/27 06:31:45;;;;;;;18.10;16.20;;;;;;;;;;5044791;28;20513;-58
2023/09/27 06:34:10;;;;;;;17.80;16.00;;;;;;;;;;5043984;28;21557;-58
2023/09/27 06:36:35;;;;;;;18.17;16.23;;;;;;;;;;5048894;28;20987;-57
2023/09/27 06:39:01;;;;;;;17.50;15.73;;;;;;;;;;5049144;28;20498;-58
2023/09/27 06:41:26;;;;;;;16.00;14.30;;;;;;;;;;5048034;28;20393;-58
2023/09/27 06:43:53;;;;;;;16.63;14.40;;;;;;;;;;5048515;28;20405;-57
2023/09/27 06:46:19;;;;;;;19.02;15.93;;;;;;;;;;5049422;28;20776;-57
2023/09/27 06:48:44;;;;;;;16.00;14.40;;;;;;;;;;5048105;28;20908;-58
2023/09/27 06:51:11;;;;;;;15.87;13.77;;;;;;;;;;5046346;28;20412;-58
2023/09/27 06:53:37;;;;;;;16.30;14.70;;;;;;;;;;5049554;28;20405;-57
2023/09/27 06:56:02;;;;;;;16.60;14.90;;;;;;;;;;5049233;28;20421;-58
2023/09/27 06:58:27;;;;;;;16.13;14.43;;;;;;;;;;5047993;28;20405;-57
2023/09/27 07:00:53;;;;;;;16.90;14.17;;;;;;;;;;5047544;28;20482;-58
2023/09/27 07:03:24;;;;;;;16.20;14.50;;;;;;;;;;5049025;28;20761;-57
2023/09/27 07:05:50;;;;;;;16.13;14.07;;;;;;;;;;5049145;28;20417;-58
2023/09/27 07:08:15;;;;;;;14.93;13.03;;;;;;;;;;5046672;28;20472;-58
2023/09/27 07:10:40;;;;;;;14.80;13.27;;;;;;;;;;5048162;28;20815;-58
2023/09/27 07:13:06;;;;;;;15.07;13.48;;;;;;;;;;5049120;28;20432;-58
2023/09/27 07:15:31;;;;;;;14.18;12.70;;;;;;;;;;5046917;28;20999;-57
2023/09/27 07:17:57;;;;;;;14.63;12.53;;;;;;;;;;5049213;28;20410;-58
2023/09/27 07:20:32;;;;;;;14.10;12.63;;;;;;;;;;5049049;28;20407;-58
2023/09/27 07:22:57;;;;;;;14.77;12.03;;;;;;;;;;5048129;28;20475;-58
2023/09/27 07:25:23;;;;;;;14.60;13.07;;;;;;;;;;5047018;28;20413;-58
2023/09/27 07:27:48;;;;;;;14.30;12.80;;;;;;;;;;5049633;28;20410;-58
2023/09/27 07:30:18;;;;;;;12.83;11.37;;;;;;;;;;5048539;28;20455;-58
2023/09/27 07:32:45;;;;;;;13.90;12.50;;;;;;;;;;5046807;28;20412;-57
2023/09/27 07:35:10;;;;;;;14.25;12.10;;;;;;;;;;5048209;28;20421;-58
2023/09/27 07:37:37;;;;;;;13.37;11.90;;;;;;;;;;5047627;28;20389;-58
2023/09/27 07:40:04;;;;;;;13.93;11.93;;;;;;;;;;5049784;28;20401;-58
2023/09/27 07:42:30;;;;;;;16.53;12.60;;;;;;;;;;5050490;28;20393;-58
2023/09/27 07:44:55;;;;;;;13.97;11.80;;;;;;;;;;5049592;28;20738;-57
2023/09/27 07:47:21;;;;;;;15.52;12.02;;;;;;;;;;5051182;28;20402;-58
2023/09/27 07:49:46;;;;;;;15.07;12.73;;;;;;;;;;5051446;28;20402;-58
2023/09/27 07:52:11;;;;;;;16.30;13.20;;;;;;;;;;5050714;28;20447;-58
2023/09/27 07:54:36;;;;;;;15.93;14.33;;;;;;;;;;5051572;28;20730;-58
2023/09/27 07:57:02;;;;;;;15.17;12.60;;;;;;;;;;5050462;28;20414;-58
2023/09/27 07:59:28;;;;;;;15.47;13.87;;;;;;;;;;5051519;28;20429;-58
2023/09/27 08:01:54;;;;;;;15.07;13.57;;;;;;;;;;5051505;28;20483;-57
2023/09/27 08:04:19;;;;;;;15.80;13.50;;;;;;;;;;5050193;28;20429;-58
2023/09/27 08:06:46;;;;;;;15.07;13.55;;;;;;;;;;5051288;28;20432;-58
2023/09/27 08:09:13;;;;;;;14.55;13.05;;;;;;;;;;5050738;28;20398;-58
2023/09/27 08:11:39;;;;;;;15.50;13.30;;;;;;;;;;5050694;28;20748;-58
2023/09/27 08:14:04;;;;;;;16.70;12.50;;;;;;;;;;5050701;28;20888;-58
2023/09/27 08:16:29;;;;;;;16.13;13.20;;;;;;;;;;5051901;28;20481;-57
2023/09/27 08:18:55;;;;;;;15.07;13.40;;;;;;;;;;5045610;28;20475;-58
2023/09/27 08:21:20;;;;;;;17.17;12.77;;;;;;;;;;5048120;28;20809;-57
2023/09/27 08:23:45;;;;;;;14.87;11.90;;;;;;;;;;5048205;28;20405;-58
2023/09/27 08:26:12;;;;;;;14.83;13.07;;;;;;;;;;5044780;28;20930;-58
2023/09/27 08:28:38;;;;;;;13.40;12.00;;;;;;;;;;5047907;28;20416;-57
2023/09/27 08:31:05;;;;;;;12.80;11.45;;;;;;;;;;5047800;28;20401;-58
2023/09/27 08:33:30;;;;;;;13.13;11.10;;;;;;;;;;5045601;28;20455;-58
2023/09/27 08:35:55;;;;;;;14.73;11.57;;;;;;;;;;5046987;28;20402;-58
2023/09/27 08:38:20;;;;;;;13.40;11.80;;;;;;;;;;5046872;28;20405;-58
2023/09/27 08:40:47;;;;;;;12.57;11.27;;;;;;;;;;5048439;28;20402;-58
2023/09/27 08:43:12;;;;;;;13.32;10.57;;;;;;;;;;5048113;28;20393;-57
2023/09/27 08:45:38;;;;;;;13.40;10.37;;;;;;;;;;5044609;28;20408;-58
2023/09/27 08:48:04;;;;;;;11.93;9.40;;;;;;;;;;5045037;28;20423;-58
2023/09/27 08:50:29;;;;;;;11.10;9.40;;;;;;;;;;5047285;28;20402;-58
2023/09/27 08:52:55;;;;;;;12.20;9.60;;;;;;;;;;5046204;28;20714;-58
2023/09/27 08:55:20;;;;;;;11.20;9.60;;;;;;;;;;5044424;28;20414;-58
2023/09/27 08:57:46;;;;;;;13.27;9.00;;;;;;;;;;5047503;28;20497;-58
2023/09/27 09:00:13;;;;;;;11.30;8.98;;;;;;;;;;5046612;28;20420;-58
2023/09/27 09:02:39;;;;;;;11.82;9.20;;;;;;;;;;5045548;28;20450;-58
2023/09/27 09:05:04;;;;;;;10.53;8.83;;;;;;;;;;5045422;28;20448;-58
2023/09/27 09:07:29;;;;;;;11.98;9.35;;;;;;;;;;5046638;28;20473;-58
2023/09/27 09:09:56;;;;;;;11.23;9.00;;;;;;;;;;5045233;28;20405;-58
2023/09/27 09:12:21;;;;;;;10.90;8.90;;;;;;;;;;5046431;28;20407;-58
2023/09/27 09:14:49;;;;;;;11.57;9.23;;;;;;;;;;5046590;28;20436;-58
2023/09/27 09:17:18;;;;;;;13.05;9.52;;;;;;;;;;5044805;28;20831;-58
2023/09/27 09:19:43;;;;;;;9.70;8.27;;;;;;;;;;5045412;28;20401;-58
2023/09/27 09:22:09;;;;;;;10.33;8.00;;;;;;;;;;5046267;28;20412;-58
2023/09/27 09:24:35;;;;;;;11.53;8.60;;;;;;;;;;5046966;28;20404;-58
2023/09/27 09:27:08;;;;;;;10.30;7.90;;;;;;;;;;5043942;28;20401;-59
2023/09/27 09:29:50;;;;;;;11.90;7.95;;;;;;;;;;5045646;28;20911;-58
2023/09/27 09:32:17;;;;;;;12.77;9.20;;;;;;;;;;5046090;28;20413;-58
2023/09/27 09:34:43;;;;;;;12.18;7.35;;;;;;;;;;5046763;28;20426;-58
2023/09/27 09:37:18;;;;;;;12.87;7.40;;;;;;;;;;5043897;28;20417;-58
2023/09/27 09:39:44;;;;;;;9.67;7.63;;;;;;;;;;5046837;28;21891;-58
2023/09/27 09:42:09;;;;;;;11.35;7.40;;;;;;;;;;5046551;28;20406;-58
2023/09/27 09:44:35;;;;;;;10.20;7.67;;;;;;;;;;5044746;28;20414;-58
2023/09/27 09:47:09;;;;;;;11.37;8.10;;;;;;;;;;5045193;28;20413;-59
2023/09/27 09:49:35;;;;;;;11.30;8.88;;;;;;;;;;5046522;28;20405;-58
2023/09/27 09:52:00;;;;;;;10.50;8.33;;;;;;;;;;5046672;28;20412;-58
2023/09/27 09:54:28;;;;;;;11.90;7.63;;;;;;;;;;5042772;28;20393;-58
2023/09/27 09:56:55;;;;;;;11.32;8.80;;;;;;;;;;5046504;28;20406;-58
2023/09/27 09:59:22;;;;;;;10.80;8.85;;;;;;;;;;5045780;28;20393;-58
2023/09/27 10:01:47;;;;;;;11.02;9.07;;;;;;;;;;5043858;28;20469;-58
2023/09/27 10:04:13;;;;;;;11.87;8.80;;;;;;;;;;5043593;28;20509;-58
2023/09/27 10:06:38;;;;;;;11.03;8.80;;;;;;;;;;5046764;28;20398;-57
2023/09/27 10:09:05;;;;;;;10.47;8.73;;;;;;;;;;5045583;28;20776;-58
2023/09/27 10:11:32;;;;;;;12.52;9.00;;;;;;;;;;5044339;28;20413;-58
2023/09/27 10:13:57;;;;;;;12.55;9.40;;;;;;;;;;5046493;28;20406;-58
2023/09/27 10:16:23;;;;;;;10.80;8.90;;;;;;;;;;5044335;28;20451;-58
2023/09/27 10:18:48;;;;;;;10.43;8.70;;;;;;;;;;5042594;28;20512;-58
2023/09/27 10:21:14;;;;;;;11.93;8.87;;;;;;;;;;5045835;28;20908;-58
2023/09/27 10:23:46;;;;;;;10.13;8.48;;;;;;;;;;5046785;28;20479;-58
2023/09/27 10:26:18;;;;;;;12.82;8.50;;;;;;;;;;5044452;28;20417;-58
2023/09/27 10:29:03;;;;;;;10.47;7.43;;;;;;;;;;5044495;28;20402;-58
2023/09/27 10:31:29;;;;;;;9.85;7.95;;;;;;;;;;5037823;28;20401;-58
2023/09/27 10:33:55;;;;;;;10.45;8.00;;;;;;;;;;5045852;28;20444;-58
2023/09/27 10:36:20;;;;;;;9.93;7.70;;;;;;;;;;5043228;28;20504;-58
2023/09/27 10:38:45;;;;;;;9.20;7.40;;;;;;;;;;5045430;28;20503;-58
2023/09/27 10:41:29;;;;;;;11.53;7.73;;;;;;;;;;5045536;28;20424;-58
2023/09/27 10:43:55;;;;;;;11.30;8.00;;;;;;;;;;5046853;28;20412;-58
2023/09/27 10:46:20;;;;;;;11.73;8.30;;;;;;;;;;5046432;28;20397;-58
2023/09/27 10:48:53;;;;;;;9.77;7.63;;;;;;;;;;5049876;28;20488;-58
2023/09/27 10:51:18;;;;;;;11.65;7.85;;;;;;;;;;5049277;28;20416;-58
2023/09/27 10:53:45;;;;;;;10.47;7.07;;;;;;;;;;5048326;28;20401;-58
2023/09/27 10:56:10;;;;;;;8.27;6.85;;;;;;;;;;5047818;28;20471;-58
2023/09/27 10:58:43;;;;;;;10.75;7.28;;;;;;;;;;5048748;28;20424;-58
2023/09/27 11:01:09;;;;;;;10.77;6.80;;;;;;;;;;5048328;28;20409;-58
2023/09/27 11:03:34;;;;;;;9.13;6.30;;;;;;;;;;5047265;28;20397;-58
2023/09/27 11:06:08;;;;;;;10.60;7.40;;;;;;;;;;5049764;28;20424;-58
2023/09/27 11:08:33;;;;;;;10.65;7.25;;;;;;;;;;5048909;28;20409;-58
2023/09/27 11:10:58;;;;;;;9.27;6.70;;;;;;;;;;5047632;28;20825;-58
2023/09/27 11:13:25;;;;;;;9.77;7.30;;;;;;;;;;5048007;28;20400;-58
2023/09/27 11:15:50;;;;;;;10.20;7.22;;;;;;;;;;5049015;28;20432;-58
2023/09/27 11:18:16;;;;;;;10.97;6.27;;;;;;;;;;5048578;28;20428;-58
2023/09/27 11:20:41;;;;;;;9.37;6.57;;;;;;;;;;5047198;28;20401;-58
2023/09/27 11:23:06;;;;;;;9.87;6.30;;;;;;;;;;5048173;28;20532;-59
2023/09/27 11:25:32;;;;;;;9.03;5.97;;;;;;;;;;5049459;28;20406;-58
2023/09/27 11:27:58;;;;;;;8.75;6.03;;;;;;;;;;5046906;28;20405;-58
2023/09/27 11:30:24;;;;;;;8.50;5.77;;;;;;;;;;5048150;28;20968;-58
2023/09/27 11:32:50;;;;;;;9.82;6.82;;;;;;;;;;5048998;28;20416;-58
2023/09/27 11:35:17;;;;;;;8.23;6.63;;;;;;;;;;5047271;28;20397;-58
2023/09/27 11:37:43;;;;;;;9.38;6.60;;;;;;;;;;5047149;28;20799;-58
2023/09/27 11:40:08;;;;;;;10.45;7.10;;;;;;;;;;5047523;28;21173;-58
2023/09/27 11:42:33;;;;;;;11.57;8.00;;;;;;;;;;5048511;28;20400;-58
2023/09/27 11:45:03;;;;;;;13.53;8.50;;;;;;;;;;5045989;28;20971;-58
2023/09/27 11:47:28;;;;;;;10.60;8.13;;;;;;;;;;5048066;28;20412;-58
2023/09/27 11:49:54;;;;;;;11.07;8.20;;;;;;;;;;5048495;28;20410;-58
2023/09/27 11:52:19;;;;;;;10.80;8.07;;;;;;;;;;5046684;28;20413;-58
2023/09/27 11:54:45;;;;;;;11.43;8.20;;;;;;;;;;5047634;28;20409;-58
2023/09/27 11:57:10;;;;;;;10.27;7.90;;;;;;;;;;5047209;28;20405;-58
2023/09/27 11:59:37;;;;;;;11.70;7.60;;;;;;;;;;5048155;28;20484;-58
2023/09/27 12:02:03;;;;;;;9.02;7.10;;;;;;;;;;5045840;28;20780;-58
2023/09/27 12:04:28;;;;;;;8.73;6.40;;;;;;;;;;5047818;28;20397;-58
2023/09/27 12:06:53;;;;;;;11.48;6.72;;;;;;;;;;5048374;28;20799;-58
2023/09/27 12:09:19;;;;;;;12.60;6.93;;;;;;;;;;5045973;28;20751;-58
2023/09/27 12:11:44;;;;;;;10.15;6.65;;;;;;;;;;5047527;28;20956;-58
2023/09/27 12:14:11;;;;;;;10.27;6.90;;;;;;;;;;5046860;28;22301;-59
2023/09/27 12:16:36;;;;;;;10.53;7.30;;;;;;;;;;5047462;28;20401;-58
2023/09/27 12:19:02;;;;;;;9.80;6.13;;;;;;;;;;5045720;28;20920;-58
2023/09/27 12:21:31;;;;;;;10.23;7.32;;;;;;;;;;5048211;28;20413;-58
2023/09/27 12:23:57;;;;;;;9.13;6.80;;;;;;;;;;5048329;28;20413;-58
2023/09/27 12:26:22;;;;;;;9.33;6.37;;;;;;;;;;5044421;28;20890;-58
2023/09/27 12:28:47;;;;;;;10.67;6.47;;;;;;;;;;5048076;28;20413;-58
2023/09/27 12:31:14;;;;;;;9.33;5.90;;;;;;;;;;5047777;28;20492;-58
2023/09/27 12:33:39;;;;;;;7.88;5.70;;;;;;;;;;5049953;28;20425;-58
2023/09/27 12:36:05;;;;;;;8.87;5.27;;;;;;;;;;5050492;28;20791;-58
2023/09/27 12:38:30;;;;;;;7.93;5.38;;;;;;;;;;5050269;28;20401;-58
2023/09/27 12:40:55;;;;;;;9.55;5.75;;;;;;;;;;5049714;28;20825;-58
2023/09/27 12:43:21;;;;;;;8.63;5.40;;;;;;;;;;5049773;28;20413;-58
2023/09/27 12:45:46;;;;;;;8.80;5.37;;;;;;;;;;5049562;28;20406;-58
2023/09/27 12:48:11;;;;;;;7.70;4.80;;;;;;;;;;5049319;28;20851;-58
2023/09/27 12:50:44;;;;;;;10.17;5.60;;;;;;;;;;5050803;28;20475;-58
2023/09/27 12:53:09;;;;;;;8.93;5.40;;;;;;;;;;5049381;28;20402;-58
2023/09/27 12:55:34;;;;;;;12.27;5.47;;;;;;;;;;5050244;28;20478;-58
2023/09/27 12:58:00;;;;;;;7.90;5.18;;;;;;;;;;5050492;28;20457;-58
2023/09/27 13:00:25;;;;;;;7.82;5.03;;;;;;;;;;5049352;28;20425;-58
2023/09/27 13:02:50;;;;;;;8.33;5.50;;;;;;;;;;5050085;28;20481;-58
2023/09/27 13:05:16;;;;;;;7.38;5.07;;;;;;;;;;5049582;28;20470;-57
2023/09/27 13:07:41;;;;;;;8.43;5.23;;;;;;;;;;5049146;28;20401;-57
2023/09/27 13:10:06;;;;;;;9.00;5.07;;;;;;;;;;5049953;28;20961;-57
2023/09/27 13:12:32;;;;;;;8.73;5.88;;;;;;;;;;5045787;28;20401;-57
2023/09/27 13:14:57;;;;;;;11.52;6.50;;;;;;;;;;5047276;28;20437;-57
2023/09/27 13:17:23;;;;;;;8.67;6.27;;;;;;;;;;5041974;28;20905;-57
2023/09/27 13:19:49;;;;;;;9.00;6.03;;;;;;;;;;5045307;28;20404;-57
2023/09/27 13:22:14;;;;;;;8.73;6.20;;;;;;;;;;5045231;28;20417;-57
2023/09/27 13:24:41;;;;;;;10.03;5.87;;;;;;;;;;5046976;28;20455;-57
2023/09/27 13:27:06;;;;;;;8.52;6.10;;;;;;;;;;5044905;28;20416;-57
2023/09/27 13:29:32;;;;;;;9.67;5.87;;;;;;;;;;5045956;28;20811;-57
2023/09/27 13:31:57;;;;;;;9.67;5.53;;;;;;;;;;5042760;28;20484;-57
2023/09/27 13:34:23;;;;;;;8.33;5.57;;;;;;;;;;5021248;28;20383;-58
2023/09/27 13:36:49;;;;;;;9.30;5.60;;;;;;;;;;5021746;28;20836;-57
2023/09/27 13:39:16;;;;;;;9.17;5.97;;;;;;;;;;5020950;28;20409;-57
2023/09/27 13:41:42;;;;;;;9.77;5.95;;;;;;;;;;5032085;28;20393;-57
2023/09/27 13:44:08;;;;;;;9.43;6.30;;;;;;;;;;5029277;28;20426;-57
2023/09/27 13:46:33;;;;;;;10.45;6.20;;;;;;;;;;5028638;28;20405;-57
2023/09/27 13:48:58;;;;;;;10.20;6.50;;;;;;;;;;5027884;28;20429;-57
2023/09/27 13:51:23;;;;;;;9.70;6.47;;;;;;;;;;5030225;28;20884;-57
2023/09/27 13:53:49;;;;;;;10.40;6.85;;;;;;;;;;5030365;28;20812;-57
2023/09/27 13:56:14;;;;;;;11.03;6.60;;;;;;;;;;5023071;28;20410;-57
2023/09/27 13:58:40;;;;;;;10.33;6.90;;;;;;;;;;5022579;28;20411;-57
2023/09/27 14:01:06;;;;;;;10.38;6.90;;;;;;;;;;5021396;28;20525;-57
2023/09/27 14:03:31;;;;;;;9.70;6.30;;;;;;;;;;5024127;28;21562;-57
2023/09/27 14:05:56;;;;;;;9.10;5.10;;;;;;;;;;5027229;28;20415;-57
2023/09/27 14:08:21;;;;;;;8.50;4.77;;;;;;;;;;5028169;28;20855;-57
2023/09/27 14:10:47;;;;;;;8.97;4.30;;;;;;;;;;5023258;28;20897;-57
2023/09/27 14:13:12;;;;;;;7.97;4.50;;;;;;;;;;5024433;28;20407;-57
2023/09/27 14:15:37;;;;;;;9.27;4.40;;;;;;;;;;5023431;28;20399;-57
2023/09/27 14:18:04;;;;;;;9.20;4.33;;;;;;;;;;5022024;28;20890;-58
2023/09/27 14:20:29;;;;;;;9.07;3.95;;;;;;;;;;5025016;28;20916;-57